createdAt,value
2019-02-17T00:04:51.809Z,10.69
2019-02-17T00:09:58.406Z,10.61
2019-02-17T00:15:06.022Z,10.53
2019-02-17T00:20:12.546Z,10.50
2019-02-17T00:25:20.421Z,10.35
2019-02-17T00:30:26.770Z,10.29
2019-02-17T00:35:32.866Z,10.06
2019-02-17T00:40:38.799Z,9.81
2019-02-17T00:45:45.244Z,9.63
2019-02-17T00:50:50.824Z,9.75
2019-02-17T00:55:56.841Z,9.34
2019-02-17T01:01:03.157Z,9.21
2019-02-17T01:06:09.254Z,9.17
2019-02-17T01:11:15.417Z,9.19
2019-02-17T01:16:21.213Z,8.75
2019-02-17T01:21:26.871Z,8.71
2019-02-17T01:26:33.998Z,8.70
2019-02-17T01:31:39.713Z,8.62
2019-02-17T01:36:46.714Z,8.24
2019-02-17T01:41:52.994Z,8.07
2019-02-17T01:46:59.464Z,8.16
2019-02-17T01:52:05.519Z,7.87
2019-02-17T01:57:11.165Z,7.63
2019-02-17T02:02:17.709Z,7.47
2019-02-17T02:07:23.805Z,7.42
2019-02-17T02:12:29.685Z,7.49
2019-02-17T02:17:37.756Z,7.18
2019-02-17T02:22:46.019Z,7.44
2019-02-17T02:27:51.802Z,7.59
2019-02-17T02:32:59.819Z,7.44
2019-02-17T02:38:06.106Z,7.44
2019-02-17T02:43:11.647Z,7.64
2019-02-17T02:48:17.696Z,7.51
2019-02-17T02:53:23.751Z,7.47
2019-02-17T02:58:29.704Z,7.42
2019-02-17T03:03:35.497Z,7.52
2019-02-17T03:08:41.487Z,7.52
2019-02-17T03:13:47.295Z,7.47
2019-02-17T03:18:53.235Z,7.50
2019-02-17T03:23:58.916Z,7.42
2019-02-17T03:29:04.711Z,7.56
2019-02-17T03:34:10.655Z,7.55
2019-02-17T03:39:16.317Z,7.60
2019-02-17T03:44:23.049Z,7.59
2019-02-17T03:49:28.629Z,7.52
2019-02-17T03:54:34.309Z,7.45
2019-02-17T03:59:40.413Z,7.53
2019-02-17T04:04:46.010Z,7.60
2019-02-17T04:09:52.070Z,7.72
2019-02-17T04:14:57.989Z,7.81
2019-02-17T04:20:03.681Z,7.82
2019-02-17T04:25:09.363Z,7.79
2019-02-17T04:30:28.164Z,7.77
2019-02-17T04:35:24.193Z,7.71
2019-02-17T04:40:29.830Z,7.75
2019-02-17T04:45:35.771Z,7.72
2019-02-17T04:50:42.169Z,7.65
2019-02-17T04:55:47.816Z,7.61
2019-02-17T05:00:55.124Z,7.59
2019-02-17T05:06:02.319Z,7.50
2019-02-17T05:11:08.315Z,7.50
2019-02-17T05:16:14.386Z,7.36
2019-02-17T05:21:20.709Z,7.38
2019-02-17T05:26:26.698Z,7.42
2019-02-17T05:31:34.007Z,7.55
2019-02-17T05:36:39.740Z,7.24
2019-02-17T05:41:45.538Z,7.32
2019-02-17T05:46:51.433Z,7.20
2019-02-17T05:51:56.987Z,7.29
2019-02-17T05:57:04.620Z,7.18
2019-02-17T06:02:12.856Z,7.29
2019-02-17T06:07:21.072Z,7.30
2019-02-17T06:12:27.200Z,7.27
2019-02-17T06:17:33.144Z,7.32
2019-02-17T06:22:39.184Z,7.16
2019-02-17T06:27:45.914Z,7.24
2019-02-17T06:32:52.382Z,7.32
2019-02-17T06:37:58.457Z,7.39
2019-02-17T06:43:04.255Z,7.44
2019-02-17T06:48:10.043Z,7.54
2019-02-17T06:53:17.799Z,7.66
2019-02-17T06:58:23.470Z,7.61
2019-02-17T07:03:30.774Z,7.61
2019-02-17T07:08:36.416Z,7.70
2019-02-17T07:13:42.943Z,7.74
2019-02-17T07:18:48.670Z,7.87
2019-02-17T07:23:55.245Z,7.77
2019-02-17T07:29:01.452Z,7.71
2019-02-17T07:34:07.535Z,7.84
2019-02-17T07:39:14.065Z,7.68
2019-02-17T07:44:19.811Z,7.78
2019-02-17T07:49:26.194Z,8.14
2019-02-17T07:54:33.287Z,8.26
2019-02-17T07:59:40.496Z,8.49
2019-02-17T08:04:47.836Z,8.57
2019-02-17T08:09:55.545Z,8.83
2019-02-17T08:15:01.291Z,9.05
2019-02-17T08:20:10.475Z,9.30
2019-02-17T08:25:21.822Z,9.35
2019-02-17T08:30:25.738Z,9.47
2019-02-17T08:35:32.964Z,9.59
2019-02-17T08:40:41.466Z,9.68
2019-02-17T08:45:47.264Z,9.82
2019-02-17T08:50:54.692Z,10.28
2019-02-17T08:56:00.631Z,10.72
2019-02-17T09:01:07.738Z,10.81
2019-02-17T09:06:15.535Z,11.13
2019-02-17T09:11:21.135Z,11.61
2019-02-17T09:16:28.130Z,11.93
2019-02-17T09:21:34.154Z,12.33
2019-02-17T09:26:39.735Z,12.58
2019-02-17T09:31:47.019Z,12.98
2019-02-17T09:36:52.620Z,13.23
2019-02-17T09:41:59.300Z,13.38
2019-02-17T09:47:05.081Z,13.78
2019-02-17T09:52:11.583Z,13.93
2019-02-17T09:57:17.555Z,14.40
2019-02-17T10:02:26.818Z,14.61
2019-02-17T10:07:33.436Z,14.92
2019-02-17T10:12:39.857Z,15.04
2019-02-17T10:17:47.041Z,15.31
2019-02-17T10:22:52.994Z,15.46
2019-02-17T10:27:59.880Z,15.60
2019-02-17T10:33:06.252Z,15.76
2019-02-17T10:38:11.823Z,16.00
2019-02-17T10:43:17.630Z,15.84
2019-02-17T10:48:24.090Z,15.85
2019-02-17T10:53:30.310Z,15.95
2019-02-17T10:58:36.013Z,16.23
2019-02-17T11:03:45.536Z,16.82
2019-02-17T11:08:52.727Z,16.97
2019-02-17T11:14:00.388Z,16.83
2019-02-17T11:19:08.709Z,17.42
2019-02-17T11:24:16.155Z,17.81
2019-02-17T11:29:21.985Z,17.95
2019-02-17T11:34:28.217Z,18.31
2019-02-17T11:39:34.623Z,18.40
2019-02-17T11:44:40.672Z,18.38
2019-02-17T11:49:47.236Z,18.79
2019-02-17T11:54:55.989Z,18.89
2019-02-17T12:00:03.677Z,19.41
2019-02-17T12:05:12.293Z,19.49
2019-02-17T12:10:19.414Z,19.85
2019-02-17T12:15:25.053Z,20.35
2019-02-17T12:20:39.458Z,20.94
2019-02-17T12:26:03.569Z,21.45
2019-02-17T12:31:10.897Z,22.22
2019-02-17T12:36:18.447Z,22.74
2019-02-17T12:41:24.489Z,23.55
2019-02-17T12:46:31.170Z,24.44
2019-02-17T12:51:39.066Z,24.09
2019-02-17T12:56:49.051Z,24.48
2019-02-17T13:01:56.953Z,24.66
2019-02-17T13:07:03.138Z,24.64
2019-02-17T13:12:11.136Z,24.86
2019-02-17T13:17:17.345Z,24.69
2019-02-17T13:22:24.780Z,24.72
2019-02-17T13:27:36.707Z,24.99
2019-02-17T13:32:46.693Z,24.54
2019-02-17T13:37:58.553Z,24.79
2019-02-17T13:43:07.553Z,25.38
2019-02-17T13:48:18.797Z,25.31
2019-02-17T13:53:26.859Z,25.45
2019-02-17T13:58:34.949Z,25.66
2019-02-17T14:03:48.831Z,25.63
2019-02-17T14:08:56.807Z,25.87
2019-02-17T14:14:05.945Z,25.94
2019-02-17T14:19:14.635Z,25.90
2019-02-17T14:24:22.682Z,25.96
2019-02-17T14:29:29.792Z,25.93
2019-02-17T14:34:36.636Z,25.64
2019-02-17T14:39:51.710Z,25.36
2019-02-17T14:45:00.714Z,25.38
2019-02-17T14:50:10.930Z,25.63
2019-02-17T14:55:17.841Z,25.72
2019-02-17T15:00:24.993Z,25.49
2019-02-17T15:05:34.953Z,25.79
2019-02-17T15:10:48.213Z,25.88
2019-02-17T15:15:57.633Z,25.52
2019-02-17T15:21:09.261Z,25.35
2019-02-17T15:26:16.711Z,25.06
2019-02-17T15:31:24.870Z,24.80
2019-02-17T15:36:35.239Z,24.56
2019-02-17T15:41:43.968Z,24.45
2019-02-17T15:46:50.880Z,24.31
2019-02-17T15:51:58.000Z,23.72
2019-02-17T15:57:03.918Z,23.06
2019-02-17T16:02:11.517Z,22.41
2019-02-17T16:07:19.034Z,22.22
2019-02-17T16:12:26.180Z,21.81
2019-02-17T16:17:32.204Z,21.05
2019-02-17T16:22:39.968Z,20.49
2019-02-17T16:27:49.102Z,20.03
2019-02-17T16:32:56.206Z,19.63
2019-02-17T16:38:05.228Z,19.38
2019-02-17T16:43:13.445Z,19.07
2019-02-17T16:48:20.775Z,18.69
2019-02-17T16:53:27.431Z,18.57
2019-02-17T16:58:35.316Z,18.25
2019-02-17T17:03:42.475Z,18.09
2019-02-17T17:08:49.044Z,17.85
2019-02-17T17:13:56.170Z,17.53
2019-02-17T17:19:02.208Z,17.31
2019-02-17T17:24:10.191Z,17.21
2019-02-17T17:29:16.206Z,16.92
2019-02-17T17:34:22.994Z,16.67
2019-02-17T17:39:28.670Z,16.62
2019-02-17T17:44:36.011Z,16.34
2019-02-17T17:49:42.367Z,16.15
2019-02-17T17:54:48.702Z,16.07
2019-02-17T17:59:54.659Z,16.01
2019-02-17T18:05:08.812Z,15.81
2019-02-17T18:10:14.976Z,15.65
2019-02-17T18:15:21.637Z,15.55
2019-02-17T18:20:28.087Z,15.47
2019-02-17T18:25:35.701Z,15.46
2019-02-17T18:30:44.215Z,15.36
2019-02-17T18:35:52.362Z,15.37
2019-02-17T18:40:59.219Z,15.25
2019-02-17T18:46:05.622Z,15.09
2019-02-17T18:51:12.447Z,15.04
2019-02-17T18:56:18.025Z,14.95
2019-02-17T19:01:24.531Z,14.82
2019-02-17T19:06:30.108Z,14.86
2019-02-17T19:11:35.773Z,14.73
2019-02-17T19:16:41.861Z,14.68
2019-02-17T19:21:48.246Z,14.59
2019-02-17T19:26:54.425Z,14.49
2019-02-17T19:32:02.303Z,14.52
2019-02-17T19:37:09.169Z,14.49
2019-02-17T19:42:17.496Z,14.38
2019-02-17T19:47:24.427Z,14.33
2019-02-17T19:52:30.538Z,14.36
2019-02-17T19:57:36.826Z,14.29
2019-02-17T20:02:59.439Z,14.26
2019-02-17T20:08:05.774Z,14.11
2019-02-17T20:13:12.430Z,13.94
2019-02-17T20:18:18.883Z,13.85
2019-02-17T20:23:24.664Z,13.98
2019-02-17T20:28:42.497Z,13.69
2019-02-17T20:33:39.938Z,13.79
2019-02-17T20:38:45.980Z,13.76
2019-02-17T20:43:52.473Z,13.73
2019-02-17T20:48:59.351Z,13.61
2019-02-17T20:54:05.469Z,13.55
2019-02-17T20:59:12.588Z,13.51
2019-02-17T21:04:18.624Z,13.42
2019-02-17T21:09:24.759Z,13.39
2019-02-17T21:14:31.002Z,13.31
2019-02-17T21:19:36.911Z,13.33
2019-02-17T21:24:42.756Z,13.30
2019-02-17T21:29:48.686Z,13.14
2019-02-17T21:34:54.342Z,13.17
2019-02-17T21:40:00.508Z,13.12
2019-02-17T21:45:12.125Z,13.12
2019-02-17T21:50:18.097Z,12.98
2019-02-17T21:55:25.908Z,12.96
2019-02-17T22:00:31.687Z,12.98
2019-02-17T22:05:37.678Z,12.83
2019-02-17T22:10:43.253Z,12.77
2019-02-17T22:15:49.151Z,12.60
2019-02-17T22:20:55.100Z,12.69
2019-02-17T22:26:00.960Z,12.58
2019-02-17T22:31:06.557Z,12.51
2019-02-17T22:36:13.201Z,12.48
2019-02-17T22:41:19.377Z,12.27
2019-02-17T22:46:25.115Z,12.25
2019-02-17T22:51:31.404Z,12.18
2019-02-17T22:56:36.992Z,12.14
2019-02-17T23:01:43.314Z,12.22
2019-02-17T23:06:54.173Z,12.20
2019-02-17T23:11:57.303Z,12.13
2019-02-17T23:17:02.914Z,11.98
2019-02-17T23:22:09.198Z,11.98
2019-02-17T23:27:15.595Z,11.86
2019-02-17T23:32:21.247Z,11.79
2019-02-17T23:37:27.376Z,11.80
2019-02-17T23:42:33.565Z,11.55
2019-02-17T23:47:39.492Z,11.55
2019-02-17T23:52:45.540Z,11.62
2019-02-17T23:57:51.632Z,11.62
